Tiempo atmosférico en la estación meteorológica de Aguilar de la Frontera, Córdoba (305 m.)



Fecha
DESCASC
Temp. máxima en grados centígrados (hora)
DESCASC
Temp. mínima en grados centígrados (hora)
DESCASC
Temp. media en grados centígrados
DESCASC
Racha de viento máxima en m/sg (hora)
DESCASC
Velocidad máxima media en intervalos de 10 minutos(hora)
DESCASC
Precipitaciones diarias en mm
DESCASC
Precipitaciones de 00:00 a 06:00 en mm
DESCASC
Precipitaciones de 06:00 a 12:00 en mm
DESCASC
Precipitaciones de 12:00 a 18:00 en mm
DESCASC
Precipitaciones de 18:00 a 24:00 en mm
DESCASC
04-03-2021 17.9 (16:20) 8 (02:30) 12.9 8.61 (17:20) 5.56 (17:20) 0 0 0 0 0
03-03-2021 19.2 (15:40) 10 (05:20) 14.6 8.33 (20:30) 4.44 (22:40) 0 0 0 0 0
02-03-2021 18.7 (15:10) 9.1 (08:10) 13.9 5.56 (17:30) 3.89 (04:20) 0 0 0 0 0
01-03-2021 17.8 (15:30) 9.4 (00:00) 13.6 7.78 (18:40) 4.17 (22:30) 1.2 0.6 0.2 0 0.4
28-02-2021 18.3 (16:20) 7.3 (00:00) 12.8 6.94 (10:10) 5 (10:20) 0 0 0 0 0
27-02-2021 15.1 (16:30) 7.7 (00:00) 11.4 4.72 (02:00) 3.33 (22:50) 0 0 0 0 0
26-02-2021 18.6 (15:40) 8.6 (00:00) 13.6 5.28 (14:50) 3.61 (22:00) 0 0 0 0 0
25-02-2021 16.3 (13:30) 6.6 (00:00) 11.4 10.83 (01:10) 6.11 (03:00) 0 0 0 0 0
24-02-2021 19 (15:20) 5.8 (00:00) 12.4 8.89 (16:50) 5.28 (16:40) 0 0 0 0 0
23-02-2021 18.3 (16:50) 3.6 (00:00) 10.9 5.56 (23:59) 4.17 (23:59) 0 0 0 0 0
22-02-2021 14.1 (16:50) 2.8 (00:00) 8.5 7.22 (16:30) 4.44 (15:20) 0.2 0 0.2 0 0
21-02-2021 14.2 (10:40) 7.5 (00:00) 10.8 12.78 (17:20) 7.22 (01:10) 11 0 0.6 10.2 0.2
20-02-2021 20.5 (13:30) 7.6 (00:00) 14 10 (12:50) 6.94 (12:50) 0 0 0 0 0
19-02-2021 18.5 (15:40) 3.5 (00:00) 11 5.83 (18:00) 4.17 (18:00) 0 0 0 0 0
18-02-2021 17.2 (17:20) 7.4 (00:00) 12.3 6.94 (13:10) 4.44 (13:20) 0 0 0 0 0
17-02-2021 22.4 (17:20) 6.1 (00:00) 14.2 4.72 (09:20) 3.33 (00:10) 0 0 0 0 0
16-02-2021 22.1 (17:10) 5.3 (00:00) 13.7 7.22 (11:20) 4.44 (11:20) 0 0 0 0 0
15-02-2021 19.3 (15:20) 6.6 (00:00) 12.9 9.44 (14:00) 5.56 (14:00) 0 0 0 0 0
14-02-2021 21.1 (15:10) 4.3 (00:00) 12.7 7.78 (21:00) 4.72 (21:00) 0 0 0 0 0
13-02-2021 17.8 (16:40) 4.3 (00:00) 11 5 (15:20) 3.06 (15:20) 0 0 0 0 0
12-02-2021 17 (16:10) 7.8 (00:00) 12.4 8.89 (14:20) 5.83 (14:20) 0.4 0 0.4 0 0
11-02-2021 15.8 (15:00) 12.1 (00:00) 14 5.83 (02:30) 3.61 (00:10) 1.2 0.8 0.4 0 0
10-02-2021 14.7 (15:30) 11.3 (00:00) 13 16.11 (08:30) 9.44 (08:30) 8 0 0.6 2.2 5.2
09-02-2021 14.5 (14:50) 9.8 (00:00) 12.2 17.22 (15:30) 10 (15:30) 8.8 1 0 4.2 3.6
08-02-2021 14 (16:30) 9.5 (00:00) 11.8 14.72 (07:10) 8.89 (07:10) 8.4 4 4.4 0 0
07-02-2021 12 (15:40) 8.2 (00:00) 10.1 13.06 (17:20) 7.78 (17:20) 0.2 0.2 0 0 0
06-02-2021 13 (14:10) 8.9 (00:00) 10.9 10 (17:30) 6.11 (17:30) 1.4 1 0 0.4 0
05-02-2021 15.3 (13:20) 7.5 (00:00) 11.4 11.94 (16:40) 5.83 (16:40) 6.4 0 0 6 0.4
04-02-2021 17.6 (16:20) 9.2 (00:00) 13.4 7.22 (14:00) 5 (14:00) 0 0 0 0 0
03-02-2021 16 (15:40) 8.6 (00:00) 12.3 4.72 (04:20) 3.61 (04:30) 0 0 0 0 0

Gráficas

Temp. máximas Temp. mínimas Temp. medias Precipitaciones Rachas de viento máximas Velocidades máximas media en intervalos de 10 minutos

Datos horarios

Fecha y hora oficial Temperatura (ºC) Velocidad del viento (km/h) Dirección del viento Racha (km/h) Dirección de racha Precipitación (mm) Presión (hPa) Tendencia (hPa) Humedad (%)
2021-03-04 23:00:00 10.8 10 Sudeste 18 Sur 0 -- -- 80
2021-03-04 22:00:00 11.3 9 Sudeste 18 Sudeste 0 -- -- 79
2021-03-04 21:00:00 11.9 8 Sudeste 17 Sudeste 0 -- -- 75
2021-03-04 20:00:00 12.4 10 Sur 20 Sur 0 -- -- 71
2021-03-04 19:00:00 13.4 13 Sur 29 Sur 0 -- -- 65
2021-03-04 18:00:00 15.4 17 Sur 31 Sudoeste 0 -- -- 58
2021-03-04 17:00:00 17.4 10 Sur 19 Sudoeste 0 -- -- 52
2021-03-04 16:00:00 17.5 12 Sudeste 25 Sur 0 -- -- 51
2021-03-04 15:00:00 17.5 11 Sudeste 24 Sudeste 0 -- -- 51
2021-03-04 14:00:00 17.2 11 Sur 22 Sur 0 -- -- 54
2021-03-04 13:00:00 15.6 8 Sur 17 Este 0 -- -- 59
2021-03-04 12:00:00 14.6 10 Sudeste 22 Este 0 -- -- 60
2021-03-04 11:00:00 14.4 13 Sudeste 25 Sudeste 0 -- -- 62
2021-03-04 10:00:00 12.8 8 Este 14 Este 0 -- -- 75
2021-03-04 09:00:00 10.6 8 Este 19 Este 0 -- -- 83
2021-03-04 08:00:00 8.2 6 Este 13 Este 0 -- -- 89
2021-03-04 07:00:00 8.4 6 Este 13 Este 0 -- -- 91
2021-03-04 06:00:00 8.5 8 Este 12 Este 0 -- -- 93
2021-03-04 05:00:00 8.4 8 Este 13 Sudeste 0 -- -- 93
2021-03-04 04:00:00 9.3 10 Sudeste 16 Sudeste 0 -- -- 93
2021-03-04 03:00:00 8.9 10 Sudeste 15 Sudeste 0 -- -- 96
2021-03-04 02:00:00 8.9 2 Sudeste 6 Sudeste 0 -- -- 91
2021-03-04 01:00:00 10.3 3 Sur 13 Sudeste 0 -- -- 91
2021-03-04 00:00:00 10.6 8 Sudeste 21 Sudeste 0 -- -- 89
2021-03-03 23:00:00 11.7 14 Sudeste 24 Sudeste 0 -- -- 86
2021-03-03 22:00:00 11.9 14 Sudeste 24 Sur 0 -- -- 86
2021-03-03 21:00:00 12.7 15 Sudeste 30 Sur 0 -- -- 85
2021-03-03 20:00:00 13.7 15 Sudeste 24 Sur 0 -- -- 82
2021-03-03 19:00:00 16 4 Sudoeste 9 Oeste 0 -- -- 68
2021-03-03 18:00:00 16.9 7 Noroeste 11 Noroeste 0 -- -- 66
2021-03-03 17:00:00 18.4 5 Oeste 13 Oeste 0 -- -- 60
2021-03-03 16:00:00 19.1 3 Sudoeste 14 Norte 0 -- -- 57
2021-03-03 15:00:00 18.5 5 Noroeste 13 Noroeste 0 -- -- 61
2021-03-03 14:00:00 17.4 4 Noroeste 12 Nordeste 0 -- -- 63
2021-03-03 13:00:00 16.7 5 Norte 12 Norte 0 -- -- 66
2021-03-03 12:00:00 16.2 2 Sudeste 10 Sur 0 -- -- 70
2021-03-03 11:00:00 14.9 5 Sudeste 14 Sudeste 0 -- -- 74
2021-03-03 10:00:00 13.3 9 Este 14 Este 0 -- -- 79
2021-03-03 09:00:00 11.7 5 Este 12 Este 0 -- -- 85
2021-03-03 08:00:00 10.8 5 Sudeste 13 Sudeste 0 -- -- 89
2021-03-03 07:00:00 11 10 Sudeste 15 Sudeste 0 -- -- 90
2021-03-03 06:00:00 10.2 2 Sur 11 Este 0 -- -- 91
2021-03-03 05:00:00 10.4 0 Calma 8 Este 0 -- -- 87
2021-03-03 04:00:00 11.8 0 Calma 15 Sudeste 0 -- -- 87
2021-03-03 03:00:00 11.7 8 Sudeste 16 Sudeste 0 -- -- 87
2021-03-03 02:00:00 11.6 12 Sudeste 15 Sudeste 0 -- -- 87
2021-03-03 01:00:00 11.8 11 Sudeste 13 Sudeste 0 -- -- 85
2021-03-03 00:00:00 12.4 9 Sudeste 14 Sudeste 0 -- -- 80
2021-03-02 23:00:00 12.5 2 Sudeste 7 Este 0 -- -- 82
2021-03-02 22:00:00 12 3 Este 10 Sudeste 0 -- -- 85
2021-03-02 21:00:00 13.2 3 Este 6 Este 0 -- -- 80
2021-03-02 20:00:00 14.8 2 Este 5 Este 0 -- -- 76
2021-03-02 19:00:00 16.2 0 Calma 15 Norte 0 -- -- 67
2021-03-02 18:00:00 17.7 6 Norte 20 Norte 0 -- -- 60
2021-03-02 17:00:00 18.5 9 Noroeste 15 Noroeste 0 -- -- 59
2021-03-02 16:00:00 18.2 5 Norte 18 Noroeste 0 -- -- 61
2021-03-02 15:00:00 18.2 6 Noroeste 15 Noroeste 0 -- -- 64
2021-03-02 14:00:00 17.2 4 Norte 14 Oeste 0 -- -- 66
2021-03-02 13:00:00 16.9 4 Noroeste 8 Norte 0 -- -- 67
2021-03-02 12:00:00 15.9 3 Oeste 9 Sudoeste 0 -- -- 70
2021-03-02 11:00:00 15.2 4 Sudeste 11 Sur 0 -- -- 74
2021-03-02 10:00:00 12.7 9 Sudeste 14 Sudeste 0 -- -- 81
2021-03-02 09:00:00 10 10 Sudeste 15 Sudeste 0 -- -- 91
2021-03-02 08:00:00 9.2 11 Sudeste 14 Sudeste 0 -- -- 92
2021-03-02 07:00:00 9.3 11 Sudeste 14 Sudeste 0 -- -- 92
2021-03-02 06:00:00 9.9 10 Sudeste 14 Sudeste 0 -- -- 90
2021-03-02 05:00:00 10.1 11 Sudeste 16 Sudeste 0 -- -- 91
2021-03-02 04:00:00 10.5 14 Sudeste 17 Sudeste 0 -- -- 89
2021-03-02 03:00:00 11.1 10 Sudeste 17 Sudeste 0 -- -- 87
2021-03-02 02:00:00 11.9 12 Sudeste 19 Sudeste 0 -- -- 84
2021-03-02 01:00:00 11.6 12 Sudeste 18 Sudeste 0 -- -- 87
2021-03-02 00:00:00 12.3 13 Sudeste 21 Sudeste 0 -- -- 84
2021-03-01 23:00:00 11.9 13 Sudeste 19 Sudeste 0 -- -- 88
2021-03-01 22:00:00 11.4 5 Sudeste 8 Sudeste 0 -- -- 90
2021-03-01 21:00:00 12.4 2 Este 5 Sudeste 0 -- -- 88
2021-03-01 20:00:00 13.3 0 Calma 7 Este 0.2 -- -- 87
2021-03-01 19:00:00 14.1 6 Sudeste 28 Este 0.2 -- -- 79
2021-03-01 18:00:00 17 7 Norte 17 Norte 0 -- -- 60
2021-03-01 17:00:00 17.1 9 Norte 15 Norte 0 -- -- 57
2021-03-01 16:00:00 17.6 8 Noroeste 13 Norte 0 -- -- 60
2021-03-01 15:00:00 17.1 3 Noroeste 15 Noroeste 0 -- -- 57
2021-03-01 14:00:00 17.4 6 Noroeste 12 Noroeste 0 -- -- 60
2021-03-01 13:00:00 16.6 5 Oeste 9 Oeste 0 -- -- 66
2021-03-01 12:00:00 14.8 3 Oeste 8 Oeste 0 -- -- 73
2021-03-01 11:00:00 13.7 4 Oeste 7 Oeste 0 -- -- 78
2021-03-01 10:00:00 12.6 5 Norte 11 Este 0 -- -- 85
2021-03-01 09:00:00 10.8 8 Sudeste 13 Este 0 -- -- 89
2021-03-01 08:00:00 9.9 10 Este 13 Este 0.2 -- -- 91
2021-03-01 07:00:00 9.8 2 Norte 10 Nordeste 0 -- -- 95
2021-03-01 06:00:00 9.9 8 Nordeste 13 Nordeste 0 -- -- 95
2021-03-01 05:00:00 9.9 4 Nordeste 13 Norte 0.4 -- -- 95
2021-03-01 04:00:00 9.9 4 Este 10 Sudeste 0.2 -- -- 93
2021-03-01 03:00:00 10.4 2 Nordeste 6 Este 0 -- -- 91
2021-03-01 02:00:00 10.7 7 Sudeste 15 Sudeste 0 -- -- 89
2021-03-01 01:00:00 10.5 9 Sudeste 15 Sudeste 0 -- -- 90
2021-03-01 00:00:00 9.4 4 Sudeste 17 Sudeste 0 -- -- 90
2021-02-28 23:00:00 10.2 14 Sudeste 17 Sudeste 0 -- -- 87
2021-02-28 22:00:00 10.5 10 Sudeste 13 Sudeste 0 -- -- 87
2021-02-28 21:00:00 11.5 11 Sudeste 18 Sudeste 0 -- -- 81
2021-02-28 20:00:00 12.5 3 Este 13 Sur 0 -- -- 75
2021-02-28 19:00:00 14.5 9 Sur 15 Sur 0 -- -- 67
2021-02-28 18:00:00 17 5 Noroeste 15 Norte 0 -- -- 60
2021-02-28 17:00:00 18 6 Oeste 13 Noroeste 0 -- -- 53
2021-02-28 16:00:00 17.9 4 Oeste 16 Sudeste 0 -- -- 54
2021-02-28 15:00:00 18 5 Sudeste 18 Sur 0 -- -- 52
2021-02-28 14:00:00 17.3 9 Sur 19 Sudeste 0 -- -- 54
2021-02-28 13:00:00 15.9 12 Este 21 Este 0 -- -- 56
2021-02-28 12:00:00 14.7 4 Norte 11 Este 0 -- -- 68
2021-02-28 11:00:00 13.5 8 Sudeste 25 Sudeste 0 -- -- 71
2021-02-28 10:00:00 10.4 12 Sudeste 19 Sudeste 0 -- -- 83
2021-02-28 09:00:00 8.3 5 Sudeste 13 Sudeste 0 -- -- 89
2021-02-28 08:00:00 8 12 Sudeste 15 Sudeste 0 -- -- 89
2021-02-28 07:00:00 8.3 12 Este 14 Este 0 -- -- 92
2021-02-28 06:00:00 7.4 8 Sudeste 10 Sudeste 0 -- -- 93
2021-02-28 05:00:00 7.5 4 Sudeste 8 Sudeste 0 -- -- 93
2021-02-28 04:00:00 8.6 8 Este 15 Este 0 -- -- 89
2021-02-28 03:00:00 8.6 9 Sudeste 10 Este 0 -- -- 91
2021-02-28 02:00:00 9 9 Sudeste 13 Sudeste 0 -- -- 91
2021-02-28 01:00:00 8.6 6 Sudeste 11 Este 0 -- -- 91
2021-02-28 00:00:00 8.8 6 Sudeste 14 Sudeste 0 -- -- 90
2021-02-27 23:00:00 9.9 9 Sudeste 16 Sudeste 0 -- -- 86
2021-02-27 22:00:00 10.6 12 Sur 16 Sur 0 -- -- 84
2021-02-27 21:00:00 11.3 10 Sur 14 Sur 0 -- -- 80
2021-02-27 20:00:00 11.7 4 Sur 8 Sur 0 -- -- 80
2021-02-27 19:00:00 13.1 0 Calma 12 Sur 0 -- -- 75
2021-02-27 18:00:00 14.2 6 Sudoeste 11 Sudoeste 0 -- -- 71
2021-02-27 17:00:00 14.9 0 Calma 7 Noroeste 0 -- -- 74
2021-02-27 16:00:00 14.9 2 Noroeste 10 Noroeste 0 -- -- 74
2021-02-27 15:00:00 14.9 6 Noroeste 10 Este 0 -- -- 75
2021-02-27 14:00:00 14.3 8 Sudeste 14 Sudeste 0 -- -- 72
2021-02-27 13:00:00 14.1 5 Sudeste 10 Sudeste 0 -- -- 74
2021-02-27 12:00:00 13.3 3 Sudoeste 8 Sur 0 -- -- 77
2021-02-27 11:00:00 12.1 3 Norte 8 Sudeste 0 -- -- 88
2021-02-27 10:00:00 10.2 0 Calma 4 Este 0 -- -- 94
2021-02-27 09:00:00 9.1 0 Calma 5 Este 0 -- -- 95
2021-02-27 08:00:00 8.3 3 Este 6 Este 0 -- -- 95
2021-02-27 07:00:00 7.7 4 Este 10 Nordeste 0 -- -- 95
2021-02-27 06:00:00 8 5 Este 13 Sudeste 0 -- -- 93
2021-02-27 05:00:00 8.6 9 Sudeste 15 Sudeste 0 -- -- 92
2021-02-27 04:00:00 8.8 11 Sudeste 14 Sudeste 0 -- -- 93
2021-02-27 03:00:00 8.9 10 Sudeste 16 Sudeste 0 -- -- 93
2021-02-27 02:00:00 9.8 11 Sudeste 17 Sudeste 0 -- -- 92
2021-02-27 01:00:00 9.7 11 Sudeste 16 Sudeste 0 -- -- 91
2021-02-27 00:00:00 10.6 11 Sudeste 18 Sudeste 0 -- -- 88
2021-02-26 23:00:00 11 11 Sudeste 18 Sudeste 0 -- -- 86
2021-02-26 22:00:00 11.4 13 Sudeste 18 Sudeste 0 -- -- 85
2021-02-26 21:00:00 12 9 Sudeste 13 Sudeste 0 -- -- 83
2021-02-26 20:00:00 13 7 Sur 13 Sur 0 -- -- 79
2021-02-26 19:00:00 15.3 4 Sudoeste 9 Oeste 0 -- -- 74
2021-02-26 18:00:00 17 4 Oeste 13 Oeste 0 -- -- 64
2021-02-26 17:00:00 17 9 Noroeste 18 Oeste 0 -- -- 66
2021-02-26 16:00:00 18.1 11 Noroeste 17 Noroeste 0 -- -- 64
2021-02-26 15:00:00 18.3 7 Oeste 19 Oeste 0 -- -- 63
2021-02-26 14:00:00 17.9 5 Oeste 15 Sudoeste 0 -- -- 65
2021-02-26 13:00:00 16.9 4 Noroeste 13 Oeste 0 -- -- 69
2021-02-26 12:00:00 16.4 5 Sur 10 Sudoeste 0 -- -- 72
2021-02-26 11:00:00 14.8 5 Sur 13 Sur 0 -- -- 75
2021-02-26 10:00:00 12.9 4 Sur 9 Sudeste 0 -- -- 81
2021-02-26 09:00:00 10 6 Sudeste 8 Sudeste 0 -- -- 95
2021-02-26 08:00:00 8.7 2 Sur 5 Sudeste 0 -- -- 95
2021-02-26 07:00:00 8.6 3 Este 5 Este 0 -- -- 95
2021-02-26 06:00:00 9 3 Este 5 Este 0 -- -- 95
2021-02-26 05:00:00 8.7 0 Calma 4 Este 0 -- -- 95
2021-02-26 04:00:00 8.7 2 Este 6 Este 0 -- -- 94
2021-02-26 03:00:00 8.9 5 Este 11 Sudeste 0 -- -- 93
2021-02-26 02:00:00 9.1 4 Este 8 Sudeste 0 -- -- 93
2021-02-26 01:00:00 8.9 4 Este 8 Sur 0 -- -- 94
2021-02-26 00:00:00 9.5 0 Calma 7 Sudeste 0 -- -- 91
2021-02-25 23:00:00 10.3 2 Este 11 Sudeste 0 -- -- 90
2021-02-25 22:00:00 10.3 6 Este 9 Sudeste 0 -- -- 89
2021-02-25 21:00:00 10.7 4 Este 7 Este 0 -- -- 86
2021-02-25 20:00:00 12.8 -- -- -- -- 0 -- -- 78
2021-02-25 19:00:00 14.1 4 Sur 10 Sudoeste 0 -- -- 74
2021-02-25 18:00:00 15 8 Sudoeste 13 Sur 0 -- -- 71
2021-02-25 17:00:00 15.7 4 Noroeste 11 Norte 0 -- -- 66
2021-02-25 16:00:00 15.9 5 Norte 11 Norte 0 -- -- 67
2021-02-25 15:00:00 15.9 5 Norte 14 Norte 0 -- -- 67
2021-02-25 14:00:00 16 7 Norte 13 Norte 0 -- -- 67
2021-02-25 13:00:00 16 5 Norte 12 Norte 0 -- -- 66
2021-02-25 12:00:00 15 3 Norte 8 Norte 0 -- -- 68
2021-02-25 11:00:00 13.5 6 Norte 9 Norte 0 -- -- 77
2021-02-25 10:00:00 10.9 0 Calma 3 Noroeste 0 -- -- 83
2021-02-25 09:00:00 8.2 0 Calma 8 Sudeste 0 -- -- 93
2021-02-25 08:00:00 6.6 3 Este 11 Sudeste 0 -- -- 90
2021-02-25 07:00:00 7.5 8 Sudeste 13 Este 0 -- -- 88
2021-02-25 06:00:00 8.8 3 Este 12 Este 0 -- -- 81
2021-02-25 05:00:00 9.9 7 Nordeste 17 Sudeste 0 -- -- 78
2021-02-25 04:00:00 11.3 11 Sudeste 35 Sudeste 0 -- -- 75
2021-02-25 03:00:00 11.9 22 Sudeste 37 Sudeste 0 -- -- 72
2021-02-25 02:00:00 11.9 18 Sudeste 39 Sudeste 0 -- -- 74
2021-02-25 01:00:00 11.5 19 Sudeste 32 Sudeste 0 -- -- 76
2021-02-25 00:00:00 10.2 5 Sur 17 Sur 0 -- -- 86
2021-02-24 23:00:00 9.1 0 Calma 7 Sudoeste 0 -- -- 89
2021-02-24 22:00:00 10 4 Sudeste 9 Este 0 -- -- 84
2021-02-24 21:00:00 11.2 5 Sudeste 11 Sudeste 0 -- -- 79
2021-02-24 20:00:00 12.7 3 Nordeste 20 Sudeste 0 -- -- 74
2021-02-24 19:00:00 14.4 11 Sudeste 27 Sur 0 -- -- 70
2021-02-24 18:00:00 16.7 13 Sur 32 Sudeste 0 -- -- 62
2021-02-24 17:00:00 17.9 19 Sudeste 32 Sudeste 0 -- -- 56
2021-02-24 16:00:00 18.4 17 Sudeste 30 Sur 0 -- -- 55
2021-02-24 15:00:00 18.8 15 Sudeste 24 Sudeste 0 -- -- 55
2021-02-24 14:00:00 18.5 13 Sudeste 22 Este 0 -- -- 55
2021-02-24 13:00:00 17.4 13 Este 23 Este 0 -- -- 56
2021-02-24 12:00:00 16.1 17 Sudeste 28 Este 0 -- -- 56
2021-02-24 11:00:00 13.7 4 Nordeste 16 Este 0 -- -- 69
2021-02-24 10:00:00 12 11 Este 18 Este 0 -- -- 71
2021-02-24 09:00:00 8.6 10 Este 14 Este 0 -- -- 83
2021-02-24 08:00:00 6.2 0 Calma 5 Este 0 -- -- 90
2021-02-24 07:00:00 6.6 2 Nordeste 9 Este 0 -- -- 87
2021-02-24 06:00:00 7.6 5 Nordeste 13 Este 0 -- -- 85
2021-02-24 05:00:00 7.1 9 Nordeste 13 Este 0 -- -- 88
2021-02-24 04:00:00 6.3 4 Este 11 Nordeste 0 -- -- 90
2021-02-24 03:00:00 7.7 4 Nordeste 15 Este 0 -- -- 84
2021-02-24 02:00:00 7.4 3 Este 9 Este 0 -- -- 87
2021-02-24 01:00:00 8.1 7 Este 19 Sudeste 0 -- -- 85
2021-02-24 00:00:00 8.6 15 Sudeste 20 Sudeste 0 -- -- 84
2021-02-23 23:00:00 9.1 8 Sudeste 18 Sudeste 0 -- -- 82
2021-02-23 22:00:00 9.6 9 Sudeste 14 Sudeste 0 -- -- 80
2021-02-23 21:00:00 10.7 7 Sur 15 Sur 0 -- -- 72
2021-02-23 20:00:00 12 10 Sur 15 Sur 0 -- -- 67
2021-02-23 19:00:00 14.7 7 Sur 16 Sudoeste 0 -- -- 58
2021-02-23 18:00:00 16.9 8 Norte 12 Norte 0 -- -- 49
2021-02-23 17:00:00 17.5 5 Este 12 Sudeste 0 -- -- 41
2021-02-23 16:00:00 17.7 8 Sur 15 Sudeste 0 -- -- 41
2021-02-23 15:00:00 17.1 4 Este 12 Sudeste 0 -- -- 43
2021-02-23 14:00:00 16.2 4 Noroeste 15 Noroeste 0 -- -- 58
2021-02-23 13:00:00 14.7 5 Noroeste 12 Norte 0 -- -- 67
2021-02-23 12:00:00 13 4 Noroeste 10 Noroeste 0 -- -- 75
2021-02-23 11:00:00 11.1 4 Noroeste 7 Noroeste 0 -- -- 84
2021-02-23 10:00:00 9 2 Oeste 6 Sur 0 -- -- 90
2021-02-23 09:00:00 6.1 2 Este 8 Este 0 -- -- 97
2021-02-23 08:00:00 3.7 2 Este 11 Sudeste 0 -- -- 96
2021-02-23 07:00:00 4.6 5 Este 13 Sudeste 0 -- -- 96
2021-02-23 06:00:00 5.3 10 Sudeste 16 Sudeste 0 -- -- 96
2021-02-23 05:00:00 4.8 4 Sudeste 10 Este 0 -- -- 95
2021-02-23 04:00:00 5.2 6 Este 9 Sudeste 0 -- -- 95
2021-02-23 03:00:00 5.8 8 Este 13 Sudeste 0 -- -- 94
2021-02-23 02:00:00 5.8 0 Calma 8 Sudeste 0 -- -- 93
2021-02-23 01:00:00 5.9 0 Calma 6 Sudeste 0 -- -- 92
2021-02-23 00:00:00 6.9 0 Calma 8 Sudeste 0 -- -- 89
2021-02-22 23:00:00 7.5 3 Sudeste 6 Sudeste 0 -- -- 92
2021-02-22 22:00:00 6.6 5 Sudeste 8 Sudeste 0 -- -- 90
2021-02-22 21:00:00 7.4 0 Calma 5 Sur 0 -- -- 86
2021-02-22 20:00:00 9.2 2 Sur 10 Sudoeste 0 -- -- 80
2021-02-22 19:00:00 11.5 9 Oeste 20 Sudoeste 0 -- -- 70
2021-02-22 18:00:00 13.7 11 Oeste 22 Oeste 0 -- -- 60
2021-02-22 17:00:00 13.3 15 Oeste 26 Oeste 0 -- -- 59
2021-02-22 16:00:00 12.4 14 Oeste 25 Oeste 0 -- -- 61
2021-02-22 15:00:00 13 13 Oeste 21 Oeste 0 -- -- 58
2021-02-22 14:00:00 12.9 10 Oeste 20 Oeste 0 -- -- 62
2021-02-22 13:00:00 11.9 11 Sudoeste 21 Oeste 0 -- -- 69
2021-02-22 12:00:00 10.8 7 Oeste 13 Oeste 0 -- -- 77
2021-02-22 11:00:00 9.3 8 Oeste 14 Oeste 0.2 -- -- 80
2021-02-22 10:00:00 8.6 3 Sur 11 Sur 0 -- -- 89
2021-02-22 09:00:00 5.8 0 Calma 8 Sudeste 0 -- -- 99
2021-02-22 08:00:00 2.9 2 Sur 6 Sur 0 -- -- 97
2021-02-22 07:00:00 4.1 3 Sur 6 Sudoeste 0 -- -- 98
2021-02-22 06:00:00 4.6 4 Sudoeste 9 Sudoeste 0 -- -- 97
2021-02-22 05:00:00 4.9 4 Sudoeste 10 Sudoeste 0 -- -- 97
2021-02-22 04:00:00 5.3 6 Sudoeste 10 Sur 0 -- -- 96
2021-02-22 03:00:00 5.8 6 Sudoeste 11 Sudoeste 0 -- -- 94
2021-02-22 02:00:00 6.6 8 Sudoeste 15 Sudoeste 0 -- -- 93
2021-02-22 01:00:00 7.4 7 Sudoeste 19 Oeste 0 -- -- 92
2021-02-22 00:00:00 7.8 11 Sudoeste 20 Sudoeste 0 -- -- 91
2021-02-21 23:00:00 7.7 8 Sudoeste 22 Oeste 0 -- -- 90
2021-02-21 22:00:00 8.3 9 Sudoeste 17 Sudoeste 0 -- -- 92
2021-02-21 21:00:00 8.5 3 Sudoeste 12 Sudoeste 0 -- -- 93
2021-02-21 20:00:00 8.6 7 Sudoeste 28 Oeste 0 -- -- 95
2021-02-21 19:00:00 8.9 23 Oeste 39 Oeste 0.2 -- -- 94
2021-02-21 18:00:00 8.7 19 Sudoeste 46 Sudoeste 1.4 -- -- 96
2021-02-21 17:00:00 10.1 19 Oeste 32 Sudoeste 0.2 -- -- 93
2021-02-21 16:00:00 10.5 19 Sudoeste 34 Sudoeste 0 -- -- 91
2021-02-21 15:00:00 10.4 9 Sudoeste 21 Sudoeste 3 -- -- 95
2021-02-21 14:00:00 10.9 5 Sur 19 Sur 3.8 -- -- 92
2021-02-21 13:00:00 11.4 4 Sudoeste 10 Noroeste 1.8 -- -- 93
2021-02-21 12:00:00 12 4 Noroeste 22 Oeste 0.6 -- -- 88
2021-02-21 11:00:00 13.9 7 Sur 21 Sur 0 -- -- 66
2021-02-21 10:00:00 13 10 Sudeste 26 Sudeste 0 -- -- 67
2021-02-21 09:00:00 12 13 Sudeste 18 Sudeste 0 -- -- 70
2021-02-21 08:00:00 11.9 13 Sudeste 21 Este 0 -- -- 73
2021-02-21 07:00:00 12.1 13 Sudeste 18 Sudeste 0 -- -- 72
2021-02-21 06:00:00 12.9 15 Sur 24 Sur 0 -- -- 68
2021-02-21 05:00:00 12.4 14 Sur 28 Sur 0 -- -- 75
2021-02-21 04:00:00 12.4 21 Sur 33 Sur 0 -- -- 76
2021-02-21 03:00:00 12.5 22 Sur 34 Sudeste 0 -- -- 75
2021-02-21 02:00:00 12.3 18 Sur 37 Sur 0 -- -- 75
2021-02-21 01:00:00 12.3 22 Sudeste 39 Sur 0 -- -- 75
2021-02-21 00:00:00 12.5 20 Sur 31 Sudeste 0 -- -- 71
2021-02-20 23:00:00 11.8 3 Sudeste 29 Sudeste 0 -- -- 74
2021-02-20 22:00:00 12.5 21 Sudeste 33 Sur 0 -- -- 75
2021-02-20 21:00:00 13 24 Sudeste 35 Sudeste 0 -- -- 73
2021-02-20 20:00:00 13.6 18 Sudeste 28 Sudeste 0 -- -- 70
2021-02-20 19:00:00 15.4 12 Sur 23 Sur 0 -- -- 65
2021-02-20 18:00:00 17.2 13 Sur 29 Sur 0 -- -- 63
2021-02-20 17:00:00 19.4 15 Sur 27 Sur 0 -- -- 56
2021-02-20 16:00:00 19.5 17 Sur 31 Sur 0 -- -- 55
2021-02-20 15:00:00 20.1 18 Sur 29 Sudeste 0 -- -- 52
2021-02-20 14:00:00 20.2 18 Sur 30 Sur 0 -- -- 48
2021-02-20 13:00:00 19.3 23 Sudeste 36 Sudeste 0 -- -- 45
2021-02-20 12:00:00 17.4 23 Sur 35 Sudeste 0 -- -- 56
2021-02-20 11:00:00 15.5 18 Sudeste 29 Sudeste 0 -- -- 59
2021-02-20 10:00:00 12.5 11 Sudeste 24 Sudeste 0 -- -- 64
2021-02-20 09:00:00 10.3 12 Sudeste 28 Sudeste 0 -- -- 68
2021-02-20 08:00:00 10 15 Sudeste 28 Sudeste 0 -- -- 66
2021-02-20 07:00:00 9.5 17 Sudeste 24 Sudeste 0 -- -- 74
2021-02-20 06:00:00 9.7 14 Sudeste 21 Sudeste 0 -- -- 76
2021-02-20 05:00:00 9.5 14 Sudeste 21 Sudeste 0 -- -- 78
2021-02-20 04:00:00 9.3 9 Sur 17 Sudeste 0 -- -- 79
2021-02-20 03:00:00 8.8 13 Sudeste 19 Sudeste 0 -- -- 79
2021-02-20 02:00:00 7.7 10 Sudeste 14 Sudeste 0 -- -- 91
2021-02-20 01:00:00 8.9 13 Sudeste 17 Sudeste 0 -- -- 86
2021-02-20 00:00:00 7.8 0 Calma 10 Sudeste 0 -- -- 93
2021-02-19 23:00:00 8.8 6 Sudeste 10 Sudeste 0 -- -- 94
2021-02-19 22:00:00 9.5 2 Sudeste 9 Sudeste 0 -- -- 92
2021-02-19 21:00:00 10.8 2 Sudoeste 13 Sudeste 0 -- -- 89
2021-02-19 20:00:00 12.4 4 Sur 8 Sudoeste 0 -- -- 84
2021-02-19 19:00:00 13.6 7 Sudoeste 19 Oeste 0 -- -- 82
2021-02-19 18:00:00 16.6 15 Oeste 21 Oeste 0 -- -- 74
2021-02-19 17:00:00 18.5 8 Oeste 15 Oeste 0 -- -- 64
2021-02-19 16:00:00 18.4 8 Oeste 17 Oeste 0 -- -- 60
2021-02-19 15:00:00 18.2 7 Oeste 15 Oeste 0 -- -- 58
2021-02-19 14:00:00 17.8 10 Oeste 18 Oeste 0 -- -- 62
2021-02-19 13:00:00 17.8 10 Oeste 15 Oeste 0 -- -- 60
2021-02-19 12:00:00 16 6 Oeste 12 Oeste 0 -- -- 67
2021-02-19 11:00:00 12.3 3 Noroeste 9 Oeste 0 -- -- 81
2021-02-19 10:00:00 11.1 3 Nordeste 9 Sudeste 0 -- -- 81
2021-02-19 09:00:00 6.2 3 Este 6 Nordeste 0 -- -- 97
2021-02-19 08:00:00 4 3 Este 9 Sudeste 0 -- -- 97
2021-02-19 07:00:00 3.6 3 Sudeste 7 Sudeste 0 -- -- 95
2021-02-19 06:00:00 4.3 5 Este 7 Este 0 -- -- 95
2021-02-19 05:00:00 5.5 0 Calma 15 Sudeste 0 -- -- 91
2021-02-19 04:00:00 5.7 4 Este 7 Este 0 -- -- 97
2021-02-19 03:00:00 5.4 4 Este 6 Este 0 -- -- 97
2021-02-19 02:00:00 5.9 0 Calma 6 Este 0 -- -- 95
2021-02-19 01:00:00 6.8 3 Este 5 Este 0 -- -- 95
2021-02-19 00:00:00 7.8 0 Calma 4 Sudeste 0 -- -- 94
2021-02-18 23:00:00 8.6 0 Calma 10 Sudeste 0 -- -- 95
2021-02-18 22:00:00 8.7 5 Sudeste 9 Sudeste 0 -- -- 94
2021-02-18 21:00:00 9.8 6 Sudeste 8 Sudeste 0 -- -- 91
2021-02-18 20:00:00 12.2 0 Calma 6 Oeste 0 -- -- 85
2021-02-18 19:00:00 14.7 3 Sudoeste 11 Oeste 0 -- -- 77
2021-02-18 18:00:00 16.9 5 Oeste 10 Oeste 0 -- -- 67
2021-02-18 17:00:00 16.9 5 Oeste 14 Oeste 0 -- -- 67
2021-02-18 16:00:00 16.3 9 Oeste 21 Oeste 0 -- -- 72
2021-02-18 15:00:00 15.8 14 Oeste 23 Oeste 0 -- -- 75
2021-02-18 14:00:00 16.2 13 Oeste 25 Oeste 0 -- -- 73
2021-02-18 13:00:00 16.4 10 Oeste 17 Oeste 0 -- -- 70
2021-02-18 12:00:00 15.4 7 Oeste 14 Oeste 0 -- -- 71
2021-02-18 11:00:00 14.4 8 Sudoeste 13 Sudoeste 0 -- -- 70
2021-02-18 10:00:00 12.5 8 Sudeste 14 Sudeste 0 -- -- 72
2021-02-18 09:00:00 8.6 0 Calma 10 Sudeste 0 -- -- 87
2021-02-18 08:00:00 8.2 12 Sudeste 18 Sudeste 0 -- -- 85
2021-02-18 07:00:00 8.2 14 Sudeste 18 Sudeste 0 -- -- 87
2021-02-18 06:00:00 8.5 11 Sudeste 15 Sudeste 0 -- -- 86
2021-02-18 05:00:00 8.8 13 Sudeste 16 Sudeste 0 -- -- 84
2021-02-18 04:00:00 8.8 7 Sudeste 14 Sudeste 0 -- -- 84
2021-02-18 03:00:00 9.5 9 Sudeste 14 Sudeste 0 -- -- 83
2021-02-18 02:00:00 9.9 10 Sudeste 12 Sudeste 0 -- -- 83
2021-02-18 01:00:00 10.5 2 Sur 15 Sudeste 0 -- -- 81
2021-02-18 00:00:00 10.2 7 Sudeste 13 Sudeste 0 -- -- 85
2021-02-17 23:00:00 11 10 Sudeste 14 Sudeste 0 -- -- 83
2021-02-17 22:00:00 11.1 2 Sudeste 15 Sudeste 0 -- -- 80
2021-02-17 21:00:00 11.9 6 Este 9 Sudeste 0 -- -- 76
2021-02-17 20:00:00 14.4 4 Este 6 Este 0 -- -- 68
2021-02-17 19:00:00 19.6 0 Calma 9 Noroeste 0 -- -- 49
2021-02-17 18:00:00 21.5 6 Noroeste 9 Noroeste 0 -- -- 51
2021-02-17 17:00:00 22.2 5 Norte 11 Noroeste 0 -- -- 46
2021-02-17 16:00:00 22 6 Norte 11 Norte 0 -- -- 51
2021-02-17 15:00:00 21.4 6 Noroeste 9 Norte 0 -- -- 53
2021-02-17 14:00:00 20.4 4 Noroeste 8 Noroeste 0 -- -- 51
2021-02-17 13:00:00 18.8 4 Noroeste 8 Noroeste 0 -- -- 57
2021-02-17 12:00:00 16 4 Noroeste 7 Noroeste 0 -- -- 64
2021-02-17 11:00:00 13.4 3 Noroeste 9 Este 0 -- -- 74
2021-02-17 10:00:00 11.1 8 Este 17 Sudeste 0 -- -- 79
2021-02-17 09:00:00 7.6 6 Sudeste 11 Sudeste 0 -- -- 89
2021-02-17 08:00:00 6.4 0 Calma 7 Sudeste 0 -- -- 91
2021-02-17 07:00:00 6.4 4 Sudeste 7 Sudeste 0 -- -- 94
2021-02-17 06:00:00 6.2 0 Calma 9 Este 0 -- -- 93
2021-02-17 05:00:00 6.6 5 Este 9 Este 0 -- -- 92
2021-02-17 04:00:00 7.2 3 Sudeste 9 Este 0 -- -- 89
2021-02-17 03:00:00 8.9 5 Este 9 Este 0 -- -- 85
2021-02-17 02:00:00 10.1 6 Sudeste 10 Sudeste 0 -- -- 80
2021-02-17 01:00:00 10.1 5 Sudeste 15 Sudeste 0 -- -- 81
2021-02-17 00:00:00 10.5 12 Sudeste 17 Sudeste 0 -- -- 82
2021-02-16 23:00:00 11.7 2 Este 8 Este 0 -- -- 76
2021-02-16 22:00:00 11.9 5 Este 10 Este 0 -- -- 77
2021-02-16 21:00:00 13.2 6 Nordeste 10 Este 0 -- -- 72
2021-02-16 20:00:00 14.2 3 Nordeste 7 Nordeste 0 -- -- 68
2021-02-16 19:00:00 17.5 4 Norte 10 Noroeste 0 -- -- 60
2021-02-16 18:00:00 20.9 5 Noroeste 9 Noroeste 0 -- -- 47
2021-02-16 17:00:00 21.5 2 Oeste 7 Noroeste 0 -- -- 40
2021-02-16 16:00:00 21.2 0 Calma 8 Sudoeste 0 -- -- 44
2021-02-16 15:00:00 20.6 5 Sur 17 Sur 0 -- -- 42
2021-02-16 14:00:00 19.4 8 Sur 17 Sudeste 0 -- -- 49
2021-02-16 13:00:00 17.7 12 Sur 20 Sudeste 0 -- -- 52
2021-02-16 12:00:00 15.5 15 Sudeste 26 Sudeste 0 -- -- 60
2021-02-16 11:00:00 13.6 14 Sudeste 23 Sudeste 0 -- -- 67
2021-02-16 10:00:00 10.9 9 Sudeste 23 Sudeste 0 -- -- 75
2021-02-16 09:00:00 7.4 8 Este 11 Sudeste 0 -- -- 85
2021-02-16 08:00:00 5.9 4 Nordeste 21 Sudeste 0 -- -- 84
2021-02-16 07:00:00 6.1 10 Sudeste 19 Sudeste 0 -- -- 84
2021-02-16 06:00:00 6.4 12 Sudeste 19 Sudeste 0 -- -- 84
2021-02-16 05:00:00 6.6 11 Sudeste 16 Sudeste 0 -- -- 86
2021-02-16 04:00:00 7.2 5 Sudeste 13 Sudeste 0 -- -- 83
2021-02-16 03:00:00 7.9 6 Sudeste 18 Sudeste 0 -- -- 82
2021-02-16 02:00:00 9.1 11 Sudeste 21 Sudeste 0 -- -- 80
2021-02-16 01:00:00 9.2 12 Sudeste 22 Sudeste 0 -- -- 79
2021-02-16 00:00:00 9.7 12 Sudeste 21 Sudeste 0 -- -- 75
2021-02-15 23:00:00 9.6 10 Sudeste 19 Sudeste 0 -- -- 74
2021-02-15 22:00:00 9.8 11 Sudeste 17 Sudeste 0 -- -- 71
2021-02-15 21:00:00 11.3 11 Sudeste 23 Sudeste 0 -- -- 65
2021-02-15 20:00:00 12.3 18 Sudeste 27 Sudeste 0 -- -- 65
2021-02-15 19:00:00 14.7 10 Sur 28 Sur 0 -- -- 61
2021-02-15 18:00:00 17.4 17 Sudeste 29 Sudeste 0 -- -- 51
2021-02-15 17:00:00 18.8 16 Sudeste 30 Sudeste 0 -- -- 46
2021-02-15 16:00:00 19 19 Sudeste 27 Sudeste 0 -- -- 44
2021-02-15 15:00:00 19.1 17 Sudeste 31 Sudeste 0 -- -- 45
2021-02-15 14:00:00 18.6 20 Sudeste 34 Sudeste 0 -- -- 46
2021-02-15 13:00:00 17.7 15 Sudeste 26 Este 0 -- -- 51
2021-02-15 12:00:00 16.6 19 Sudeste 28 Este 0 -- -- 52
2021-02-15 11:00:00 15.8 14 Este 24 Este 0 -- -- 54
2021-02-15 10:00:00 13.7 7 Sudeste 17 Sudeste 0 -- -- 61
2021-02-15 09:00:00 8.6 2 Noroeste 11 Este 0 -- -- 77
2021-02-15 08:00:00 8 8 Este 15 Este 0 -- -- 78
2021-02-15 07:00:00 8.4 8 Este 15 Este 0 -- -- 77
2021-02-15 06:00:00 6.6 4 Sudeste 7 Sudeste 0 -- -- 85
2021-02-15 05:00:00 8.9 6 Sudeste 12 Sudeste 0 -- -- 77
2021-02-15 04:00:00 7.7 5 Este 9 Este 0 -- -- 86
2021-02-15 03:00:00 8.6 5 Este 9 Este 0 -- -- 84
2021-02-15 02:00:00 8.8 7 Sudeste 12 Sudeste 0 -- -- 84
2021-02-15 01:00:00 9.6 2 Este 10 Sudeste 0 -- -- 81
2021-02-15 00:00:00 9.2 6 Este 12 Sudeste 0 -- -- 81
2021-02-14 23:00:00 10.2 0 Calma 14 Sudeste 0 -- -- 77
2021-02-14 22:00:00 12.6 9 Sudeste 27 Sudeste 0 -- -- 69
2021-02-14 21:00:00 13.4 17 Sudeste 28 Sudeste 0 -- -- 67
2021-02-14 20:00:00 12.7 5 Sudeste 15 Sudeste 0 -- -- 69
2021-02-14 19:00:00 15.4 7 Sudeste 21 Sur 0 -- -- 57
2021-02-14 18:00:00 18.8 12 Sur 22 Sur 0 -- -- 46
2021-02-14 17:00:00 19.9 16 Sur 25 Sur 0 -- -- 42
2021-02-14 16:00:00 20.6 11 Sur 20 Sudoeste 0 -- -- 42
2021-02-14 15:00:00 21 8 Sudoeste 15 Oeste 0 -- -- 42
2021-02-14 14:00:00 20.2 5 Oeste 14 Sur 0 -- -- 40
2021-02-14 13:00:00 18.9 7 Sudeste 14 Este 0 -- -- 44
2021-02-14 12:00:00 15.8 4 Noroeste 8 Oeste 0 -- -- 63
2021-02-14 11:00:00 13.2 3 Oeste 5 Oeste 0 -- -- 69
2021-02-14 10:00:00 10 0 Calma 4 Sudoeste 0 -- -- 82
2021-02-14 09:00:00 6.5 2 Este 8 Este 0 -- -- 91
2021-02-14 08:00:00 4.3 3 Este 8 Este 0 -- -- 93
2021-02-14 07:00:00 4.7 4 Este 9 Este 0 -- -- 93
2021-02-14 06:00:00 4.9 0 Calma 7 Este 0 -- -- 90
2021-02-14 05:00:00 6.2 3 Este 13 Sudeste 0 -- -- 85
2021-02-14 04:00:00 6.9 6 Este 14 Sudeste 0 -- -- 83
2021-02-14 03:00:00 6.8 12 Sudeste 13 Sudeste 0 -- -- 87
2021-02-14 02:00:00 7.2 0 Calma 9 Este 0 -- -- 87
2021-02-14 01:00:00 7.5 5 Este 10 Este 0 -- -- 89
2021-02-14 00:00:00 8.1 3 Este 6 Este 0 -- -- 89
2021-02-13 23:00:00 8.3 2 Este 7 Este 0 -- -- 86
2021-02-13 22:00:00 9.2 0 Calma 8 Este 0 -- -- 85
2021-02-13 21:00:00 9.1 6 Este 9 Este 0 -- -- 87
2021-02-13 20:00:00 11 5 Este 8 Este 0 -- -- 78
2021-02-13 19:00:00 15.9 0 Calma 11 Norte 0 -- -- 60
2021-02-13 18:00:00 17.6 7 Norte 14 Norte 0 -- -- 48
2021-02-13 17:00:00 17.6 9 Norte 16 Norte 0 -- -- 52
2021-02-13 16:00:00 17.3 6 Norte 18 Norte 0 -- -- 56
2021-02-13 15:00:00 17.2 9 Noroeste 17 Norte 0 -- -- 67
2021-02-13 14:00:00 16.5 9 Norte 16 Norte 0 -- -- 68
2021-02-13 13:00:00 15.7 9 Noroeste 17 Noroeste 0 -- -- 72
2021-02-13 08:00:00 -- -- -- -- -- -- -- -- --
2021-02-13 07:00:00 5.3 0 Calma 4 Sudeste 0 -- -- 95
2021-02-13 06:00:00 6.4 0 Calma 4 Nordeste 0 -- -- 95
2021-02-13 05:00:00 6.8 0 Calma 4 Este 0 -- -- 96
2021-02-13 04:00:00 6 3 Este 5 Este 0 -- -- 96
2021-02-13 03:00:00 6.1 4 Este 8 Este 0 -- -- 95
2021-02-13 02:00:00 6.9 0 Calma 6 Este 0 -- -- 93
2021-02-13 01:00:00 7.5 3 Este 9 Este 0 -- -- 93
2021-02-13 00:00:00 7.8 5 Este 12 Este 0 -- -- 91
2021-02-12 23:00:00 8.8 7 Este 13 Sudeste 0 -- -- 89
2021-02-12 22:00:00 9.2 4 Este 8 Este 0 -- -- 88
2021-02-12 21:00:00 10.3 0 Calma 11 Sudeste 0 -- -- 85
2021-02-12 20:00:00 11.3 0 Calma 7 Oeste 0 -- -- 83
2021-02-12 19:00:00 13.9 6 Oeste 19 Oeste 0 -- -- 71
2021-02-12 18:00:00 16.3 10 Oeste 21 Oeste 0 -- -- 63
2021-02-12 17:00:00 16.8 13 Noroeste 25 Noroeste 0 -- -- 61
2021-02-12 16:00:00 16.9 13 Oeste 28 Noroeste 0 -- -- 61
2021-02-12 15:00:00 16.9 17 Oeste 32 Oeste 0 -- -- 64
2021-02-12 14:00:00 16.6 16 Oeste 25 Oeste 0 -- -- 66
2021-02-12 13:00:00 16 12 Oeste 24 Noroeste 0 -- -- 75
2021-02-12 12:00:00 15.1 12 Oeste 24 Oeste 0 -- -- 87
2021-02-12 11:00:00 14.2 14 Oeste 22 Sudoeste 0 -- -- 99
2021-02-12 10:00:00 13.3 14 Oeste 24 Oeste 0 -- -- 99
2021-02-12 09:00:00 13 14 Oeste 27 Oeste 0 -- -- 99
2021-02-12 08:00:00 12.9 10 Sudoeste 22 Sur 0.4 -- -- 99
2021-02-12 07:00:00 12.8 9 Sudoeste 22 Sudoeste 0 -- -- 99
2021-02-12 06:00:00 12.7 12 Sudoeste 22 Sudoeste 0 -- -- 98
2021-02-12 05:00:00 12.8 8 Sudoeste 18 Sudoeste 0 -- -- 98
2021-02-12 04:00:00 12.8 8 Sudoeste 17 Sudoeste 0 -- -- 98
2021-02-12 03:00:00 12.8 12 Sudoeste 22 Sudoeste 0 -- -- 98
2021-02-12 02:00:00 13 10 Sudoeste 17 Sudoeste 0 -- -- 98
2021-02-12 01:00:00 13.2 4 Sudoeste 15 Sudoeste 0 -- -- 98
2021-02-12 00:00:00 13.4 9 Sudoeste 19 Sur 0 -- -- 97
2021-02-11 23:00:00 13.1 8 Sudeste 10 Sudeste 0 -- -- 97
2021-02-11 22:00:00 12.3 0 Calma 4 Este 0 -- -- 95
2021-02-11 21:00:00 13.3 4 Este 6 Este 0 -- -- 95
2021-02-11 20:00:00 14 0 Calma 5 Norte 0 -- -- 92
2021-02-11 19:00:00 14.5 4 Oeste 4 Oeste 0 -- -- 90
2021-02-11 18:00:00 15.2 0 Calma 8 Oeste 0 -- -- 85
2021-02-11 17:00:00 15 5 Noroeste 14 Oeste 0 -- -- 88
2021-02-11 16:00:00 15.3 7 Oeste 13 Oeste 0 -- -- 86
2021-02-11 15:00:00 15.8 7 Oeste 11 Oeste 0 -- -- 85
2021-02-11 14:00:00 15.4 7 Oeste 10 Oeste 0 -- -- 88
2021-02-11 13:00:00 15 6 Oeste 11 Oeste 0 -- -- 91
2021-02-11 12:00:00 14.7 4 Sudoeste 10 Sur 0 -- -- 94
2021-02-11 11:00:00 13.9 6 Sur 9 Sur 0 -- -- 99
2021-02-11 10:00:00 13.4 4 Sudeste 10 Este 0 -- -- 100
2021-02-11 09:00:00 12.7 5 Sur 9 Sudeste 0.4 -- -- 100
2021-02-11 08:00:00 12.6 4 Sur 11 Sur 0 -- -- 100
2021-02-11 07:00:00 12.7 8 Sudoeste 13 Sur 0 -- -- 100
2021-02-11 06:00:00 12.9 5 Sudoeste 16 Sudoeste 0 -- -- 100
2021-02-11 05:00:00 12.8 10 Sudoeste 19 Sudoeste 0 -- -- 100
2021-02-11 04:00:00 13.2 8 Sudoeste 17 Sudoeste 0 -- -- 100
2021-02-11 03:00:00 13.3 11 Sudoeste 21 Sudoeste 0 -- -- 100
2021-02-11 02:00:00 13.3 9 Sudoeste 21 Sudoeste 0.6 -- -- 100
2021-02-11 01:00:00 13.3 10 Sudoeste 21 Sudoeste 0.2 -- -- 100
2021-02-11 00:00:00 13.3 12 Sudoeste 29 Sudoeste 0 -- -- 100
2021-02-10 23:00:00 13.3 15 Sudoeste 38 Sudoeste 0.2 -- -- 99
2021-02-10 22:00:00 13.2 21 Sudoeste 36 Oeste 0.6 -- -- 99
2021-02-10 21:00:00 13.2 18 Sudoeste 37 Sudoeste 1.2 -- -- 99
2021-02-10 20:00:00 13.4 21 Sudoeste 42 Sudoeste 3 -- -- 99
2021-02-10 19:00:00 13.7 24 Sudoeste 41 Sudoeste 0.2 -- -- 98
2021-02-10 18:00:00 14 20 Sudoeste 43 Sudoeste 1.6 -- -- 98
2021-02-10 17:00:00 14.1 19 Sudoeste 41 Sudoeste 0.2 -- -- 97
2021-02-10 16:00:00 14.5 24 Sudoeste 43 Sudoeste 0 -- -- 97
2021-02-10 15:00:00 14.2 23 Sudoeste 38 Oeste 0 -- -- 99
2021-02-10 14:00:00 14.1 19 Oeste 44 Oeste 0.2 -- -- 99
2021-02-10 13:00:00 13.8 26 Oeste 46 Oeste 0.2 -- -- 99
2021-02-10 12:00:00 13.6 25 Sudoeste 49 Sudoeste 0.2 -- -- 98
2021-02-10 11:00:00 13.3 27 Sudoeste 57 Sudoeste 0 -- -- 95
2021-02-10 10:00:00 12.9 26 Sudoeste 54 Oeste 0 -- -- 94
2021-02-10 09:00:00 12.7 30 Sudoeste 58 Sudoeste 0 -- -- 96
2021-02-10 08:00:00 12.5 30 Sudoeste 52 Sudoeste 0.4 -- -- 98
2021-02-10 07:00:00 12.4 25 Sudoeste 44 Sudoeste 0 -- -- 94
2021-02-10 06:00:00 11.9 18 Sudoeste 33 Sudoeste 0 -- -- 93
2021-02-10 05:00:00 11.9 17 Sudoeste 35 Sudoeste 0 -- -- 95
2021-02-10 04:00:00 11.8 21 Sudoeste 36 Sudoeste 0 -- -- 95
2021-02-10 03:00:00 11.6 17 Sudoeste 37 Sudoeste 0 -- -- 95
2021-02-10 02:00:00 11.7 23 Sudoeste 56 Sudoeste 0 -- -- 95
2021-02-10 01:00:00 12.3 27 Sudoeste 48 Sudoeste 0 -- -- 96
2021-02-10 00:00:00 11.7 26 Sudoeste 46 Sudoeste 0.2 -- -- 97
2021-02-09 23:00:00 11.7 22 Sudoeste 38 Oeste 0.2 -- -- 98
2021-02-09 22:00:00 11.3 19 Sudoeste 49 Sudoeste 2.8 -- -- 97
2021-02-09 21:00:00 12.9 25 Sudoeste 53 Sudoeste 0.2 -- -- 90
2021-02-09 20:00:00 12.6 23 Sudoeste 46 Sudoeste 0 -- -- 95
2021-02-09 19:00:00 12.3 21 Sudoeste 43 Sudoeste 0.2 -- -- 95
2021-02-09 18:00:00 12.5 22 Sudoeste 55 Oeste 0.2 -- -- 96
2021-02-09 17:00:00 12.6 21 Sudoeste 50 Sudoeste 1.8 -- -- 96
2021-02-09 16:00:00 12.5 26 Sudoeste 62 Sudoeste 1.8 -- -- 95
2021-02-09 15:00:00 14.4 27 Sudoeste 47 Sudoeste 0 -- -- 78
2021-02-09 14:00:00 13.5 21 Sur 40 Sudoeste 0.2 -- -- 88
2021-02-09 13:00:00 12.5 18 Sudoeste 52 Sudoeste 0.2 -- -- 89
2021-02-09 12:00:00 12.4 19 Sudoeste 42 Sudoeste 0 -- -- 87
2021-02-09 11:00:00 12.4 16 Sur 24 Sur 0 -- -- 81
2021-02-09 10:00:00 11.4 14 Sur 23 Sur 0 -- -- 86
2021-02-09 09:00:00 10.4 13 Sur 23 Sur 0 -- -- 90
2021-02-09 08:00:00 10 13 Sur 24 Sur 0 -- -- 94
2021-02-09 07:00:00 9.8 13 Sur 27 Oeste 0 -- -- 96
2021-02-09 06:00:00 9.9 19 Sudoeste 34 Sudoeste 0.6 -- -- 97
2021-02-09 05:00:00 10.1 8 Sur 16 Sur 0.4 -- -- 95
2021-02-09 04:00:00 10.4 11 Sur 21 Sur 0 -- -- 95
2021-02-09 03:00:00 10.3 10 Sur 18 Sur 0 -- -- 94
2021-02-09 02:00:00 10.5 10 Sudoeste 24 Sur 0 -- -- 94
2021-02-09 01:00:00 10.7 12 Sudoeste 27 Sudoeste 0 -- -- 93
2021-02-09 00:00:00 10.5 11 Sudoeste 24 Sudoeste 0 -- -- 93
2021-02-08 23:00:00 10.7 11 Sudoeste 27 Sudoeste 0 -- -- 93
2021-02-08 22:00:00 10.8 15 Sudoeste 28 Sudoeste 0 -- -- 93
2021-02-08 21:00:00 11.4 16 Sudoeste 30 Sudoeste 0 -- -- 92
2021-02-08 20:00:00 11.7 18 Sudoeste 33 Sudoeste 0 -- -- 90
2021-02-08 19:00:00 11.7 17 Sudoeste 37 Sudoeste 0 -- -- 90
2021-02-08 18:00:00 12.4 17 Sudoeste 40 Sudoeste 0 -- -- 83
2021-02-08 17:00:00 13.4 26 Sudoeste 47 Oeste 0 -- -- 75
2021-02-08 16:00:00 13 25 Oeste 42 Sudoeste 0 -- -- 77
2021-02-08 15:00:00 13 22 Sudoeste 46 Sudoeste 0 -- -- 79
2021-02-08 14:00:00 13.1 26 Sudoeste 41 Oeste 0 -- -- 74
2021-02-08 13:00:00 12.6 22 Sudoeste 42 Oeste 0 -- -- 80
2021-02-08 12:00:00 12.3 27 Sudoeste 39 Sudoeste 0 -- -- 86
2021-02-08 11:00:00 10.8 18 Sudoeste 29 Sudoeste 0 -- -- 94
2021-02-08 10:00:00 10.2 10 Sudoeste 22 Sudoeste 0 -- -- 96
2021-02-08 09:00:00 9.9 15 Sudoeste 35 Oeste 0 -- -- 95
2021-02-08 08:00:00 10.7 21 Sudoeste 53 Sudoeste 0.4 -- -- 95
2021-02-08 07:00:00 10.5 19 Sur 31 Sur 4 -- -- 97
2021-02-08 06:00:00 10.2 15 Sur 26 Sur 0.8 -- -- 95
2021-02-08 05:00:00 10.1 13 Sur 20 Sur 2.8 -- -- 95
2021-02-08 04:00:00 10.2 10 Sur 20 Sur 0.4 -- -- 94
2021-02-08 03:00:00 10.5 10 Sur 28 Sur 0 -- -- 91
2021-02-08 02:00:00 10 13 Sur 24 Sur 0 -- -- 92
2021-02-08 01:00:00 9.5 15 Sudoeste 27 Sudoeste 0 -- -- 95
2021-02-08 00:00:00 9.7 14 Sudoeste 28 Sudoeste 0 -- -- 88
2021-02-07 23:00:00 9.6 11 Sudoeste 24 Sudoeste 0 -- -- 86
2021-02-07 22:00:00 9.4 10 Sudoeste 22 Sudoeste 0 -- -- 83
2021-02-07 21:00:00 9.4 13 Sudoeste 23 Sudoeste 0 -- -- 83
2021-02-07 20:00:00 9.1 11 Sudoeste 24 Sudoeste 0 -- -- 78
2021-02-07 19:00:00 9.5 17 Sudoeste 42 Oeste 0 -- -- 74
2021-02-07 18:00:00 10.4 24 Sudoeste 47 Oeste 0 -- -- 70
2021-02-07 17:00:00 11 26 Sudoeste 42 Sudoeste 0 -- -- 73
2021-02-07 16:00:00 11.7 21 Sudoeste 36 Sudoeste 0 -- -- 74
2021-02-07 15:00:00 11.1 19 Sudoeste 34 Sudoeste 0 -- -- 82
2021-02-07 14:00:00 11 21 Sudoeste 32 Sudoeste 0 -- -- 88
2021-02-07 13:00:00 11.2 18 Sudoeste 28 Sudoeste 0 -- -- 88
2021-02-07 12:00:00 10 16 Oeste 22 Oeste 0 -- -- 96
2021-02-07 11:00:00 9.1 11 Sudoeste 23 Sudoeste 0 -- -- 98
2021-02-07 10:00:00 8.7 10 Sudoeste 18 Oeste 0 -- -- 98
2021-02-07 09:00:00 8.5 9 Oeste 19 Oeste 0 -- -- 98
2021-02-07 08:00:00 8.3 8 Sudoeste 12 Sudoeste 0 -- -- 98
2021-02-07 07:00:00 8.2 6 Sudoeste 15 Sudoeste 0 -- -- 98
2021-02-07 06:00:00 8.3 8 Sudoeste 18 Sudoeste 0.2 -- -- 97
2021-02-07 05:00:00 8.3 8 Sudoeste 14 Sudoeste 0 -- -- 96
2021-02-07 04:00:00 8.3 8 Sudoeste 15 Sudoeste 0 -- -- 95
2021-02-07 03:00:00 8.5 7 Sudoeste 13 Sudoeste 0 -- -- 94
2021-02-07 02:00:00 8.6 9 Sudoeste 24 Sur 0 -- -- 93
2021-02-07 01:00:00 8.7 10 Sudoeste 25 Sudoeste 0 -- -- 93
2021-02-07 00:00:00 8.9 9 Sudoeste 23 Sur 0 -- -- 93
2021-02-06 23:00:00 9.1 10 Sudoeste 21 Sudoeste 0 -- -- 93
2021-02-06 22:00:00 9.7 10 Sudoeste 24 Sur 0 -- -- 90
2021-02-06 21:00:00 10.1 9 Sudoeste 24 Sudoeste 0 -- -- 92
2021-02-06 20:00:00 10.4 13 Sudoeste 26 Sudoeste 0 -- -- 88
2021-02-06 19:00:00 11 11 Sudoeste 29 Sudoeste 0 -- -- 85
2021-02-06 18:00:00 11.3 15 Sudoeste 36 Sudoeste 0 -- -- 83
2021-02-06 17:00:00 12.1 21 Sudoeste 32 Sudoeste 0 -- -- 80
2021-02-06 16:00:00 11.8 17 Sudoeste 33 Sudoeste 0.4 -- -- 85
2021-02-06 15:00:00 12.7 17 Sudoeste 32 Sudoeste 0 -- -- 80
2021-02-06 14:00:00 12.9 14 Sudoeste 33 Sudoeste 0 -- -- 79
2021-02-06 13:00:00 12.5 18 Sudoeste 34 Sudoeste 0 -- -- 80
2021-02-06 12:00:00 11.8 17 Sudoeste 27 Sudoeste 0 -- -- 84
2021-02-06 11:00:00 10.9 12 Sudoeste 24 Sudoeste 0 -- -- 88
2021-02-06 10:00:00 10.2 12 Sudoeste 23 Sudoeste 0 -- -- 88
2021-02-06 09:00:00 9.7 11 Sudeste 24 Sur 0 -- -- 86
2021-02-06 08:00:00 9.5 14 Sur 30 Sudoeste 0 -- -- 87
2021-02-06 07:00:00 9 12 Sur 24 Sudoeste 0 -- -- 92
2021-02-06 06:00:00 9.3 16 Sudoeste 32 Sudoeste 0.4 -- -- 93
2021-02-06 05:00:00 10.1 13 Sur 22 Sur 0.2 -- -- 93
2021-02-06 04:00:00 11 13 Sur 25 Sudeste 0 -- -- 84
2021-02-06 03:00:00 10.8 16 Sudeste 28 Sur 0 -- -- 84
2021-02-06 02:00:00 9.8 9 Sudeste 21 Sudeste 0 -- -- 89
2021-02-06 01:00:00 9.8 9 Sudeste 18 Sudeste 0.4 -- -- 91
2021-02-06 00:00:00 10.2 12 Sudeste 19 Sudeste 0 -- -- 89
2021-02-05 23:00:00 10 9 Sudeste 16 Sudeste 0 -- -- 91
2021-02-05 22:00:00 9.8 10 Sudeste 13 Sudeste 0 -- -- 94
2021-02-05 21:00:00 10.2 10 Sudeste 14 Sudeste 0 -- -- 94
2021-02-05 20:00:00 10.4 12 Sudeste 21 Este 0.2 -- -- 94
2021-02-05 19:00:00 10.6 16 Este 23 Este 0.2 -- -- 94
2021-02-05 18:00:00 11 4 Este 11 Sudeste 4 -- -- 95
2021-02-05 17:00:00 10.7 8 Sudoeste 43 Oeste 2 -- -- 90
2021-02-05 16:00:00 14.4 9 Oeste 19 Oeste 0 -- -- 80
2021-02-05 15:00:00 14.8 12 Oeste 22 Oeste 0 -- -- 78
2021-02-05 14:00:00 14.9 9 Oeste 24 Oeste 0 -- -- 81
2021-02-05 13:00:00 15.1 14 Oeste 21 Oeste 0 -- -- 80
2021-02-05 12:00:00 14.1 12 Oeste 19 Oeste 0 -- -- 85
2021-02-05 11:00:00 12.1 6 Oeste 11 Oeste 0 -- -- 92
2021-02-05 10:00:00 10.5 3 Oeste 9 Oeste 0 -- -- 98
2021-02-05 09:00:00 7.9 2 Sudoeste 8 Sudeste 0 -- -- 97
2021-02-05 08:00:00 7.8 0 Calma 10 Sudoeste 0 -- -- 96
2021-02-05 07:00:00 8.5 5 Este 10 Este 0 -- -- 95
2021-02-05 06:00:00 9.5 6 Sudeste 10 Este 0 -- -- 94
2021-02-05 05:00:00 10.6 0 Calma 18 Sudeste 0 -- -- 93
2021-02-05 04:00:00 11.4 14 Sudeste 19 Sudeste 0 -- -- 93
2021-02-05 03:00:00 11 2 Sudeste 10 Este 0 -- -- 93
2021-02-05 02:00:00 11.7 5 Sudeste 12 Sudeste 0 -- -- 92
2021-02-05 01:00:00 11.7 5 Este 11 Nordeste 0 -- -- 93
2021-02-05 00:00:00 11.2 4 Sur 10 Sur 0 -- -- 94
2021-02-04 23:00:00 10.7 3 Sudeste 9 Sudeste 0 -- -- 93
2021-02-04 22:00:00 11.3 0 Calma 9 Este 0 -- -- 91
2021-02-04 21:00:00 12.1 6 Noroeste 17 Nordeste 0 -- -- 88
2021-02-04 20:00:00 12 3 Noroeste 8 Nordeste 0 -- -- 88
2021-02-04 19:00:00 13.6 5 Noroeste 13 Oeste 0 -- -- 83
2021-02-04 18:00:00 15.6 10 Noroeste 18 Oeste 0 -- -- 76
2021-02-04 17:00:00 16.8 6 Oeste 18 Oeste 0 -- -- 69
2021-02-04 16:00:00 17.3 8 Oeste 19 Oeste 0 -- -- 68
2021-02-04 15:00:00 16.5 10 Oeste 24 Oeste 0 -- -- 70
2021-02-04 14:00:00 15.6 18 Oeste 26 Oeste 0 -- -- 73
2021-02-04 13:00:00 15.9 12 Oeste 15 Oeste 0 -- -- 76
2021-02-04 12:00:00 14.3 5 Sur 11 Sudeste 0 -- -- 78
2021-02-04 11:00:00 12.1 7 Este 10 Este 0 -- -- 94
2021-02-04 10:00:00 10.3 3 Este 7 Sudeste 0 -- -- 98
2021-02-04 09:00:00 9.3 5 Este 7 Este 0 -- -- 97
2021-02-04 08:00:00 9.6 0 Calma 5 Este 0 -- -- 97
2021-02-04 07:00:00 10 5 Este 6 Este 0 -- -- 96
2021-02-04 06:00:00 10.5 0 Calma 5 Este 0 -- -- 96
2021-02-04 05:00:00 10.7 3 Este 5 Este 0 -- -- 95
2021-02-04 04:00:00 11.3 3 Sudeste 5 Sudeste 0 -- -- 95
2021-02-04 03:00:00 11.1 0 Calma 6 Sudeste 0 -- -- 94
2021-02-04 02:00:00 11.4 3 Sudeste 8 Sudeste 0 -- -- 92
2021-02-04 01:00:00 11.3 5 Sudeste 7 Sudeste 0 -- -- 92
2021-02-04 00:00:00 10.8 3 Sudeste 8 Sudeste 0 -- -- 93
2021-02-03 23:00:00 10.2 0 Calma 9 Sudeste 0 -- -- 93
2021-02-03 22:00:00 9.9 2 Sudeste 7 Este 0 -- -- 94
2021-02-03 21:00:00 10.8 5 Sudeste 8 Este 0 -- -- 91
2021-02-03 20:00:00 11.9 0 Calma 4 Sudeste 0 -- -- 87
2021-02-03 19:00:00 13.3 0 Calma 5 Oeste 0 -- -- 81
2021-02-03 18:00:00 14.5 4 Oeste 8 Oeste 0 -- -- 75
2021-02-03 17:00:00 15.5 5 Oeste 10 Oeste 0 -- -- 69
2021-02-03 16:00:00 15.7 7 Oeste 13 Oeste 0 -- -- 68
2021-02-03 15:00:00 15.7 7 Oeste 13 Oeste 0 -- -- 67
2021-02-03 14:00:00 15.2 5 Noroeste 10 Oeste 0 -- -- 67
2021-02-03 13:00:00 14 4 Sur 15 Sudeste 0 -- -- 73
2021-02-03 12:00:00 13.2 9 Sudeste 14 Sudeste 0 -- -- 82
2021-02-03 11:00:00 12 13 Sudeste 17 Sudeste 0 -- -- 87
2021-02-03 10:00:00 10.8 10 Sudeste 15 Sudeste 0 -- -- 91
2021-02-03 09:00:00 9.7 10 Sudeste 15 Sudeste 0 -- -- 94
2021-02-03 08:00:00 9.6 8 Sudeste 14 Sudeste 0 -- -- 95
2021-02-03 07:00:00 9.7 10 Sudeste 13 Sudeste 0 -- -- 95
2021-02-03 06:00:00 9.7 0 Calma 12 Sudeste 0 -- -- 96
2021-02-03 05:00:00 9.6 8 Sudeste 17 Sudeste 0 -- -- 95
2021-02-03 04:00:00 9.8 4 Sudoeste 15 Sudeste 0 -- -- 95
2021-02-03 03:00:00 9.2 3 Sudeste 14 Sudeste 0 -- -- 96
2021-02-03 02:00:00 8.8 8 Sudeste 12 Sudeste 0 -- -- 95
2021-02-03 01:00:00 9 9 Sudeste 12 Este 0 -- -- 95
2021-02-03 00:00:00 9.1 9 Sudeste 12 Este 0 -- -- 95